Time;durP1;ratioP1;P1;durP2;ratioP2;P2;SDS_P1;SDS_P2;PMS_P1;PMS_P2;Temp;Humidity;BMP_temperature;BMP_pressure;BME280_temperature;BME280_humidity;BME280_pressure;Samples;Min_cycle;Max_cycle;Signal;HPM_P1;HPM_P2
2021/08/17 00:00:43;;;;;;;4.55;2.42;;;14.60;99.90;;;;;;5128049;27;20118;-79
2021/08/17 00:03:10;;;;;;;4.85;2.10;;;14.60;99.90;;;;;;5126543;27;20477;-79
2021/08/17 00:05:38;;;;;;;6.38;2.58;;;14.60;99.90;;;;;;5124110;27;20043;-79
2021/08/17 00:08:06;;;;;;;5.03;2.50;;;14.60;99.90;;;;;;5132161;27;20134;-79
2021/08/17 00:10:33;;;;;;;6.45;2.83;;;14.60;99.90;;;;;;5116638;27;20044;-81
2021/08/17 00:13:01;;;;;;;5.82;2.47;;;14.50;99.90;;;;;;5117192;27;20040;-78
2021/08/17 00:15:29;;;;;;;5.95;3.00;;;14.40;99.90;;;;;;5126660;27;20042;-80
2021/08/17 00:17:57;;;;;;;5.15;2.50;;;14.40;99.90;;;;;;5127424;27;20126;-80
2021/08/17 00:20:24;;;;;;;4.55;2.25;;;14.40;99.90;;;;;;5124202;27;20400;-80
2021/08/17 00:22:51;;;;;;;5.00;2.53;;;14.30;99.90;;;;;;5124531;27;20134;-80
2021/08/17 00:25:19;;;;;;;7.18;2.97;;;14.40;99.90;;;;;;5125332;27;20053;-78
2021/08/17 00:27:46;;;;;;;5.22;2.40;;;14.30;99.90;;;;;;5115966;28;20126;-80
2021/08/17 00:30:14;;;;;;;4.55;2.45;;;14.30;99.90;;;;;;5124770;27;20042;-79
2021/08/17 00:32:42;;;;;;;5.15;2.72;;;14.30;99.90;;;;;;5127155;27;20126;-79
2021/08/17 00:35:11;;;;;;;4.95;2.40;;;14.30;99.90;;;;;;5126557;27;20047;-80
2021/08/17 00:37:38;;;;;;;4.47;2.22;;;14.30;99.90;;;;;;5123712;27;20043;-81
2021/08/17 00:40:07;;;;;;;5.07;2.47;;;14.30;99.90;;;;;;5123514;27;20135;-80
2021/08/17 00:42:41;;;;;;;4.22;2.20;;;14.30;99.90;;;;;;5115606;27;20453;-81
2021/08/17 00:45:12;;;;;;;4.90;2.30;;;14.40;99.90;;;;;;5124296;27;20047;-79
2021/08/17 00:47:39;;;;;;;4.97;2.10;;;14.40;99.90;;;;;;5127167;27;20043;-78
2021/08/17 00:50:06;;;;;;;5.35;2.35;;;14.50;99.90;;;;;;5126441;27;20492;-78
2021/08/17 00:52:34;;;;;;;4.57;2.03;;;14.50;99.90;;;;;;5120331;27;20039;-78
2021/08/17 00:55:02;;;;;;;5.05;2.20;;;14.60;99.90;;;;;;5127068;27;20049;-79
2021/08/17 00:57:29;;;;;;;4.50;2.38;;;14.60;99.90;;;;;;5126400;27;20130;-80
2021/08/17 00:59:56;;;;;;;4.85;2.10;;;14.60;99.90;;;;;;5128003;27;20122;-80
2021/08/17 01:02:23;;;;;;;4.75;1.98;;;14.60;99.90;;;;;;5130984;27;20148;-76
2021/08/17 01:04:50;;;;;;;4.20;2.22;;;14.60;99.90;;;;;;5134607;27;20122;-77
2021/08/17 01:07:17;;;;;;;5.13;2.40;;;14.70;99.90;;;;;;5129987;27;20079;-78
2021/08/17 01:09:45;;;;;;;4.50;2.30;;;14.70;99.90;;;;;;5123082;27;20503;-78
2021/08/17 01:12:13;;;;;;;4.82;2.40;;;14.70;99.90;;;;;;5124545;27;20130;-77
2021/08/17 01:14:40;;;;;;;5.22;2.25;;;14.70;99.90;;;;;;5127510;27;20130;-81
2021/08/17 01:17:07;;;;;;;5.72;2.83;;;14.70;99.90;;;;;;5125063;27;20131;-81
2021/08/17 01:19:35;;;;;;;5.10;2.83;;;14.70;99.90;;;;;;5126279;27;20477;-79
2021/08/17 01:22:03;;;;;;;4.07;2.33;;;14.70;99.90;;;;;;5125986;27;20491;-79
2021/08/17 01:24:30;;;;;;;5.20;2.35;;;14.60;99.90;;;;;;5122763;27;20047;-79
2021/08/17 01:26:59;;;;;;;6.32;2.97;;;14.60;99.90;;;;;;5122635;27;20453;-79
2021/08/17 01:29:26;;;;;;;5.25;2.70;;;14.60;99.90;;;;;;5125694;27;20133;-80
2021/08/17 01:31:53;;;;;;;5.80;2.85;;;14.50;99.90;;;;;;5126182;27;20061;-81
2021/08/17 01:34:20;;;;;;;5.32;2.50;;;14.50;99.90;;;;;;5123474;27;20050;-80
2021/08/17 01:36:47;;;;;;;6.05;2.80;;;14.50;99.90;;;;;;5122638;27;20118;-81
2021/08/17 01:39:14;;;;;;;6.68;3.10;;;14.40;99.90;;;;;;5135641;27;20067;-77
2021/08/17 01:41:41;;;;;;;5.72;2.85;;;14.40;99.90;;;;;;5132695;27;20140;-78
2021/08/17 01:44:10;;;;;;;5.35;2.95;;;14.40;99.90;;;;;;5124134;27;20118;-78
2021/08/17 01:46:39;;;;;;;5.18;2.90;;;14.30;99.90;;;;;;5125778;27;20118;-76
2021/08/17 01:49:06;;;;;;;5.82;3.17;;;14.20;99.90;;;;;;5125478;27;20436;-78
2021/08/17 01:51:34;;;;;;;7.20;3.58;;;14.20;99.90;;;;;;5122299;27;20074;-78
2021/08/17 01:54:03;;;;;;;7.15;3.45;;;14.10;99.90;;;;;;5121412;27;20087;-81
2021/08/17 01:56:30;;;;;;;5.40;2.90;;;14.00;99.90;;;;;;5125405;27;20054;-80
2021/08/17 01:58:57;;;;;;;6.30;3.42;;;13.90;99.90;;;;;;5125510;27;20555;-79
2021/08/17 02:01:26;;;;;;;6.35;3.22;;;13.80;99.90;;;;;;5122724;27;20130;-78
2021/08/17 02:03:53;;;;;;;6.72;3.13;;;13.80;99.90;;;;;;5122097;27;20472;-79
2021/08/17 02:06:20;;;;;;;5.93;3.28;;;13.70;99.90;;;;;;5123044;27;20073;-79
2021/08/17 02:08:47;;;;;;;5.50;3.10;;;13.60;99.90;;;;;;5121854;27;20043;-79
2021/08/17 02:11:14;;;;;;;6.10;3.50;;;13.60;99.90;;;;;;5122849;27;20479;-79
2021/08/17 02:13:41;;;;;;;7.78;3.35;;;13.60;99.90;;;;;;5125459;27;20504;-81
2021/08/17 02:16:08;;;;;;;6.13;3.10;;;13.50;99.90;;;;;;5124724;27;20043;-79
2021/08/17 02:18:37;;;;;;;6.97;3.05;;;13.50;99.90;;;;;;5121808;27;20043;-79
2021/08/17 02:21:05;;;;;;;7.07;3.40;;;13.40;99.90;;;;;;5121545;27;20083;-77
2021/08/17 02:23:33;;;;;;;6.35;3.10;;;13.40;99.90;;;;;;5125369;27;20050;-79
2021/08/17 02:26:00;;;;;;;8.75;3.78;;;13.30;99.90;;;;;;5125345;27;20115;-80
2021/08/17 02:28:27;;;;;;;5.80;2.70;;;13.20;99.90;;;;;;5123290;27;20492;-78
2021/08/17 02:30:54;;;;;;;5.97;2.88;;;13.10;99.90;;;;;;5125288;27;20045;-80
2021/08/17 02:33:21;;;;;;;6.93;3.33;;;13.10;99.90;;;;;;5122517;28;20134;-80
2021/08/17 02:35:50;;;;;;;6.32;3.20;;;13.10;99.90;;;;;;5121587;28;20047;-79
2021/08/17 02:38:17;;;;;;;5.78;2.75;;;13.10;99.90;;;;;;5123062;28;20492;-80
2021/08/17 02:40:44;;;;;;;6.03;2.83;;;13.10;99.90;;;;;;5125204;28;20130;-78
2021/08/17 02:43:11;;;;;;;7.53;3.30;;;13.10;99.90;;;;;;5123985;28;20126;-81
2021/08/17 02:45:39;;;;;;;6.95;3.40;;;13.20;99.90;;;;;;5121291;28;20388;-80
2021/08/17 02:48:07;;;;;;;7.45;3.30;;;13.10;99.90;;;;;;5121347;28;20135;-78
2021/08/17 02:50:34;;;;;;;7.30;3.45;;;13.10;99.90;;;;;;5106275;28;20400;-80
2021/08/17 02:53:02;;;;;;;5.43;2.83;;;13.10;99.90;;;;;;5121469;28;20404;-81
2021/08/17 02:55:30;;;;;;;6.90;3.45;;;13.10;99.90;;;;;;5124413;28;20043;-79
2021/08/17 02:58:01;;;;;;;6.65;3.28;;;13.10;99.90;;;;;;5124845;28;20047;-80
2021/08/17 03:00:28;;;;;;;5.65;2.60;;;13.10;99.90;;;;;;5121710;28;20114;-78
2021/08/17 03:02:55;;;;;;;7.63;3.70;;;13.10;99.90;;;;;;5120557;28;20400;-80
2021/08/17 03:05:23;;;;;;;5.22;2.92;;;13.10;99.90;;;;;;5122689;27;20134;-77
2021/08/17 03:07:52;;;;;;;8.57;3.65;;;13.10;99.90;;;;;;5123554;27;20047;-79
2021/08/17 03:10:21;;;;;;;8.45;3.10;;;13.00;99.90;;;;;;5124267;27;20117;-80
2021/08/17 03:12:48;;;;;;;7.38;2.78;;;13.00;99.90;;;;;;5126601;27;20683;-80
2021/08/17 03:15:17;;;;;;;5.63;3.05;;;12.90;99.90;;;;;;5124384;27;20046;-78
2021/08/17 03:17:44;;;;;;;7.50;3.42;;;12.90;99.90;;;;;;5127144;27;20400;-81
2021/08/17 03:20:13;;;;;;;7.28;3.25;;;12.90;99.90;;;;;;5125268;27;20050;-79
2021/08/17 03:22:41;;;;;;;6.40;3.17;;;12.90;99.90;;;;;;5122911;27;20465;-80
2021/08/17 03:25:11;;;;;;;6.57;3.30;;;12.90;99.90;;;;;;5122763;27;20134;-81
2021/08/17 03:27:40;;;;;;;6.47;2.83;;;12.90;99.90;;;;;;5126082;27;20051;-80
2021/08/17 03:30:10;;;;;;;7.60;2.92;;;12.80;99.90;;;;;;5125457;27;20126;-79
2021/08/17 03:32:37;;;;;;;6.95;3.13;;;12.80;99.90;;;;;;5122923;27;20079;-79
2021/08/17 03:35:06;;;;;;;6.05;3.20;;;12.90;99.90;;;;;;5122375;27;20048;-79
2021/08/17 03:37:33;;;;;;;5.82;3.10;;;12.90;99.90;;;;;;5114938;27;20134;-78
2021/08/17 03:40:00;;;;;;;6.45;2.60;;;12.90;99.90;;;;;;5124760;27;20050;-81
2021/08/17 03:42:29;;;;;;;7.40;3.17;;;13.00;99.90;;;;;;5118767;27;20422;-82
2021/08/17 03:44:58;;;;;;;6.95;3.05;;;12.90;99.90;;;;;;5132694;27;20035;-82
2021/08/17 03:47:26;;;;;;;5.30;2.58;;;13.00;99.90;;;;;;5124176;27;20475;-80
2021/08/17 03:49:53;;;;;;;6.47;3.28;;;13.00;99.90;;;;;;5127317;27;20434;-82
2021/08/17 03:52:20;;;;;;;6.45;2.90;;;13.00;99.90;;;;;;5124933;27;20126;-80
2021/08/17 03:54:47;;;;;;;6.47;3.33;;;13.00;99.90;;;;;;5133997;27;20129;-79
2021/08/17 03:57:14;;;;;;;7.55;2.92;;;13.00;99.90;;;;;;5127108;27;20079;-79
2021/08/17 03:59:42;;;;;;;6.13;2.85;;;13.00;99.90;;;;;;5125781;27;20085;-80
2021/08/17 04:02:10;;;;;;;6.43;2.97;;;13.00;99.90;;;;;;5125587;27;20117;-79
2021/08/17 04:04:37;;;;;;;6.45;2.90;;;13.00;99.90;;;;;;5124296;27;20071;-82
2021/08/17 04:07:05;;;;;;;6.80;3.20;;;12.90;99.90;;;;;;5124917;27;20123;-81
2021/08/17 04:09:32;;;;;;;6.68;2.83;;;12.90;99.90;;;;;;5116519;27;20131;-79
2021/08/17 04:11:59;;;;;;;6.32;2.80;;;12.90;99.90;;;;;;5124401;27;20135;-79
2021/08/17 04:14:26;;;;;;;7.38;3.30;;;12.90;99.90;;;;;;5127035;27;20142;-79
2021/08/17 04:16:56;;;;;;;6.55;3.10;;;12.90;99.90;;;;;;5127027;27;20126;-81
2021/08/17 04:19:24;;;;;;;7.80;3.00;;;12.90;99.90;;;;;;5124804;27;20051;-78
2021/08/17 04:21:52;;;;;;;7.10;3.05;;;12.90;99.90;;;;;;5124054;27;20126;-79
2021/08/17 04:24:19;;;;;;;6.10;3.13;;;12.90;99.90;;;;;;5127981;27;20476;-78
2021/08/17 04:26:46;;;;;;;6.13;3.30;;;12.90;99.90;;;;;;5124101;27;20043;-79
2021/08/17 04:29:13;;;;;;;6.70;3.30;;;12.90;99.90;;;;;;5124304;27;20130;-80
2021/08/17 04:31:40;;;;;;;5.97;3.10;;;12.90;99.90;;;;;;5124691;27;20537;-81
2021/08/17 04:34:08;;;;;;;6.90;3.42;;;12.90;99.90;;;;;;5118027;27;20054;-79
2021/08/17 04:36:37;;;;;;;6.32;3.20;;;12.90;99.90;;;;;;5115498;28;20421;-79
2021/08/17 04:39:04;;;;;;;6.70;3.00;;;12.90;99.90;;;;;;5115762;28;20552;-80
2021/08/17 04:41:31;;;;;;;6.97;3.05;;;12.90;99.90;;;;;;5115299;28;20131;-78
2021/08/17 04:43:58;;;;;;;9.30;3.28;;;12.90;99.90;;;;;;5115514;28;20131;-80
2021/08/17 04:46:25;;;;;;;5.78;3.00;;;13.00;99.90;;;;;;5115571;28;20086;-78
2021/08/17 04:48:52;;;;;;;6.80;3.22;;;12.90;99.90;;;;;;5116402;28;20044;-77
2021/08/17 04:51:19;;;;;;;5.82;2.72;;;12.90;99.90;;;;;;5116996;28;20131;-77
2021/08/17 04:53:48;;;;;;;6.90;3.53;;;13.00;99.90;;;;;;5117735;28;20048;-79
2021/08/17 04:56:15;;;;;;;7.80;3.67;;;12.90;99.90;;;;;;5117352;28;20054;-79
2021/08/17 04:58:42;;;;;;;6.63;3.30;;;12.90;99.90;;;;;;5117042;28;20127;-79
2021/08/17 05:01:09;;;;;;;7.28;3.35;;;12.90;99.90;;;;;;5115125;28;20075;-79
2021/08/17 05:03:36;;;;;;;7.00;3.35;;;12.80;99.90;;;;;;5115242;28;20126;-77
2021/08/17 05:06:03;;;;;;;9.60;3.35;;;12.80;99.90;;;;;;5115409;28;20134;-76
2021/08/17 05:08:30;;;;;;;7.22;3.28;;;12.70;99.90;;;;;;5115296;28;20090;-77
2021/08/17 05:10:58;;;;;;;6.72;2.97;;;12.80;99.90;;;;;;5115426;28;20209;-79
2021/08/17 05:13:25;;;;;;;7.05;3.22;;;12.70;99.90;;;;;;5115201;28;20382;-78
2021/08/17 05:15:52;;;;;;;6.47;2.90;;;12.70;99.90;;;;;;5114781;28;20055;-78
2021/08/17 05:18:19;;;;;;;6.65;3.65;;;12.70;99.90;;;;;;5114897;28;20139;-79
2021/08/17 05:20:46;;;;;;;8.00;3.60;;;12.70;99.90;;;;;;5114820;28;20499;-78
2021/08/17 05:23:13;;;;;;;6.45;3.63;;;12.60;99.90;;;;;;5114677;28;20568;-80
2021/08/17 05:25:41;;;;;;;9.27;3.42;;;12.60;99.90;;;;;;5114631;28;20134;-80
2021/08/17 05:28:09;;;;;;;6.20;3.40;;;12.60;99.90;;;;;;5113562;28;20122;-79
2021/08/17 05:30:36;;;;;;;6.25;3.30;;;12.60;99.90;;;;;;5114464;28;20050;-79
2021/08/17 05:33:04;;;;;;;7.43;3.20;;;12.60;99.90;;;;;;5114604;28;20051;-78
2021/08/17 05:35:31;;;;;;;6.15;3.05;;;12.70;99.90;;;;;;5115111;28;20122;-79
2021/08/17 05:37:58;;;;;;;7.65;3.80;;;12.70;99.90;;;;;;5116074;28;20127;-80
2021/08/17 05:40:25;;;;;;;7.05;3.10;;;12.60;99.90;;;;;;5114371;28;20123;-80
2021/08/17 05:42:52;;;;;;;7.25;3.60;;;12.60;99.90;;;;;;5114145;28;20476;-78
2021/08/17 05:45:20;;;;;;;7.50;3.72;;;12.60;99.90;;;;;;5114263;28;20047;-78
2021/08/17 05:47:48;;;;;;;8.05;3.92;;;12.60;99.90;;;;;;5114227;28;20050;-79
2021/08/17 05:50:17;;;;;;;7.85;3.53;;;12.60;99.90;;;;;;5114250;28;20455;-78
2021/08/17 05:52:44;;;;;;;6.57;3.42;;;12.60;99.90;;;;;;5114284;28;20131;-78
2021/08/17 05:55:12;;;;;;;8.50;3.95;;;12.60;99.90;;;;;;5114887;28;20079;-80
2021/08/17 05:57:40;;;;;;;8.15;3.70;;;12.60;99.90;;;;;;5113779;28;20087;-79
2021/08/17 06:00:11;;;;;;;8.55;3.88;;;12.70;99.90;;;;;;5113846;28;20075;-78
2021/08/17 06:02:40;;;;;;;8.65;3.83;;;12.70;99.90;;;;;;5114169;28;20122;-79
2021/08/17 06:05:08;;;;;;;6.50;3.40;;;12.70;99.90;;;;;;5113934;28;20134;-79
2021/08/17 06:07:36;;;;;;;7.63;3.33;;;12.80;99.90;;;;;;5114705;28;20126;-77
2021/08/17 06:10:04;;;;;;;8.05;3.92;;;12.80;99.90;;;;;;5114389;28;20050;-78
2021/08/17 06:12:31;;;;;;;7.10;3.22;;;12.90;99.90;;;;;;5114704;28;20040;-77
2021/08/17 06:14:58;;;;;;;7.05;3.58;;;13.00;99.90;;;;;;5113835;28;20057;-77
2021/08/17 06:17:25;;;;;;;9.02;3.70;;;13.10;99.90;;;;;;5113881;28;20052;-77
2021/08/17 06:19:53;;;;;;;6.60;3.30;;;13.10;99.90;;;;;;5115717;28;20465;-78
2021/08/17 06:22:20;;;;;;;9.27;4.03;;;13.20;99.90;;;;;;5114400;28;20127;-79
2021/08/17 06:24:47;;;;;;;8.25;3.60;;;13.20;99.90;;;;;;5113530;28;20134;-77
2021/08/17 06:27:16;;;;;;;7.32;3.65;;;13.30;99.90;;;;;;5113712;28;20138;-79
2021/08/17 06:29:43;;;;;;;7.45;3.40;;;13.30;99.90;;;;;;5113763;28;20413;-79
2021/08/17 06:32:10;;;;;;;7.72;3.63;;;13.30;99.90;;;;;;5113694;28;20135;-79
2021/08/17 06:34:37;;;;;;;7.68;3.60;;;13.30;99.90;;;;;;5113526;28;20130;-79
2021/08/17 06:37:05;;;;;;;7.45;4.00;;;13.30;99.90;;;;;;5113388;28;20476;-79
2021/08/17 06:39:32;;;;;;;8.65;4.10;;;13.40;99.90;;;;;;5112778;28;20131;-79
2021/08/17 06:41:59;;;;;;;7.05;3.83;;;13.40;99.90;;;;;;5113386;28;20492;-77
2021/08/17 06:44:27;;;;;;;6.72;3.85;;;13.40;99.90;;;;;;5113900;28;20552;-78
2021/08/17 06:46:54;;;;;;;8.45;3.90;;;13.40;99.90;;;;;;5125022;28;20102;-78
2021/08/17 06:49:21;;;;;;;6.90;3.40;;;13.50;99.90;;;;;;5118273;28;20476;-79
2021/08/17 06:51:48;;;;;;;8.45;3.50;;;13.50;99.90;;;;;;5113474;28;20127;-78
2021/08/17 06:54:16;;;;;;;7.85;3.70;;;13.60;99.90;;;;;;5113104;28;20043;-78
2021/08/17 06:56:43;;;;;;;6.43;3.40;;;13.60;99.90;;;;;;5113487;28;20054;-79
2021/08/17 06:59:10;;;;;;;7.63;3.60;;;13.60;99.90;;;;;;5113365;28;20130;-79
2021/08/17 07:01:37;;;;;;;7.68;3.70;;;13.60;99.90;;;;;;5113353;28;20050;-80
2021/08/17 07:04:05;;;;;;;8.18;3.50;;;13.70;99.90;;;;;;5117550;28;20107;-79
2021/08/17 07:06:35;;;;;;;5.85;3.25;;;13.70;99.90;;;;;;5114509;28;20086;-77
2021/08/17 07:09:02;;;;;;;7.28;3.55;;;13.70;99.90;;;;;;5114013;28;20492;-78
2021/08/17 07:11:31;;;;;;;6.63;3.50;;;13.70;99.90;;;;;;5121668;28;20078;-79
2021/08/17 07:13:58;;;;;;;6.65;3.35;;;13.70;99.90;;;;;;5121992;28;20083;-79
2021/08/17 07:16:25;;;;;;;5.50;3.40;;;13.80;99.90;;;;;;5122202;28;20130;-79
2021/08/17 07:18:52;;;;;;;6.60;3.55;;;13.80;99.90;;;;;;5122427;28;20111;-79
2021/08/17 07:21:19;;;;;;;7.57;3.53;;;13.90;99.70;;;;;;5113426;28;20134;-79
2021/08/17 07:23:46;;;;;;;6.95;3.40;;;14.00;99.30;;;;;;5113155;28;20122;-79
2021/08/17 07:26:14;;;;;;;8.15;4.10;;;14.00;99.10;;;;;;5113035;28;20057;-78
2021/08/17 07:28:43;;;;;;;8.70;3.80;;;14.10;98.70;;;;;;5113291;28;20466;-78
2021/08/17 07:31:11;;;;;;;8.82;4.30;;;14.00;98.30;;;;;;5112966;28;20458;-77
2021/08/17 07:33:38;;;;;;;6.82;3.70;;;14.10;98.60;;;;;;5112855;28;20188;-78
2021/08/17 07:36:06;;;;;;;8.30;4.25;;;14.10;98.90;;;;;;5113067;28;20090;-78
2021/08/17 07:38:33;;;;;;;8.10;4.13;;;14.20;98.20;;;;;;5113067;28;20127;-78
2021/08/17 07:41:00;;;;;;;8.27;4.22;;;14.20;97.80;;;;;;5114087;28;20500;-81
2021/08/17 07:43:27;;;;;;;9.20;3.80;;;14.30;98.10;;;;;;5113821;28;20131;-80
2021/08/17 07:45:55;;;;;;;10.70;4.13;;;14.30;98.30;;;;;;5112854;28;20043;-79
2021/08/17 07:48:23;;;;;;;7.07;3.60;;;14.30;97.50;;;;;;5112646;28;20058;-79
2021/08/17 07:50:50;;;;;;;8.25;4.15;;;14.30;98.20;;;;;;5114960;28;20400;-79
2021/08/17 07:53:17;;;;;;;7.50;3.85;;;14.40;97.10;;;;;;5116961;28;20134;-80
2021/08/17 07:55:44;;;;;;;7.95;4.30;;;14.40;97.20;;;;;;5116319;28;20400;-80
2021/08/17 07:58:11;;;;;;;9.55;4.47;;;14.40;97.00;;;;;;5116243;28;20138;-76
2021/08/17 08:00:38;;;;;;;7.53;4.10;;;14.50;97.70;;;;;;5116230;28;20131;-76
2021/08/17 08:03:06;;;;;;;7.95;4.45;;;14.50;96.90;;;;;;5116175;28;20138;-78
2021/08/17 08:05:33;;;;;;;9.05;4.20;;;14.60;97.40;;;;;;5115862;28;20131;-75
2021/08/17 08:08:00;;;;;;;7.30;4.15;;;14.70;96.80;;;;;;5111894;28;20130;-77
2021/08/17 08:10:28;;;;;;;8.25;4.70;;;14.70;97.00;;;;;;5116028;28;20125;-76
2021/08/17 08:12:55;;;;;;;9.23;4.60;;;14.80;96.10;;;;;;5116082;28;20047;-74
2021/08/17 08:15:23;;;;;;;7.60;4.35;;;14.80;96.50;;;;;;5116331;28;20135;-76
2021/08/17 08:17:50;;;;;;;8.82;5.20;;;14.90;95.90;;;;;;5116299;28;20051;-78
2021/08/17 08:20:20;;;;;;;7.88;4.38;;;14.90;96.10;;;;;;5115666;28;20051;-77
2021/08/17 08:22:47;;;;;;;9.45;4.72;;;15.00;96.40;;;;;;5095378;28;20044;-79
2021/08/17 08:25:14;;;;;;;9.07;4.95;;;15.10;96.60;;;;;;5095589;28;20482;-77
2021/08/17 08:27:41;;;;;;;8.00;4.30;;;15.20;95.70;;;;;;5095380;28;20134;-77
2021/08/17 08:30:11;;;;;;;7.43;4.10;;;15.30;96.20;;;;;;5095440;28;20050;-76
2021/08/17 08:32:38;;;;;;;8.27;4.93;;;15.30;96.40;;;;;;5095651;28;20064;-76
2021/08/17 08:35:07;;;;;;;9.75;5.32;;;15.50;95.70;;;;;;5097348;28;20094;-79
2021/08/17 08:37:35;;;;;;;8.98;5.03;;;15.50;95.00;;;;;;5115915;28;20090;-77
2021/08/17 08:40:03;;;;;;;8.30;4.05;;;15.50;94.50;;;;;;5114153;28;20127;-78
2021/08/17 08:42:30;;;;;;;8.45;4.75;;;15.50;95.10;;;;;;5115662;28;20089;-80
2021/08/17 08:44:57;;;;;;;8.48;4.50;;;15.60;94.00;;;;;;5115683;28;20126;-77
2021/08/17 08:47:24;;;;;;;9.80;4.60;;;15.60;93.20;;;;;;5115766;28;20138;-75
2021/08/17 08:49:54;;;;;;;7.65;4.53;;;15.70;93.80;;;;;;5113863;28;20071;-78
2021/08/17 08:52:23;;;;;;;9.45;4.47;;;15.70;93.90;;;;;;5115145;28;20138;-79
2021/08/17 08:54:52;;;;;;;7.70;4.38;;;15.80;94.10;;;;;;5115293;28;20098;-76
2021/08/17 08:57:19;;;;;;;8.77;4.32;;;15.90;94.10;;;;;;5115011;28;20146;-79
2021/08/17 08:59:46;;;;;;;8.75;4.40;;;16.10;93.30;;;;;;5115269;28;20400;-78
2021/08/17 09:02:17;;;;;;;7.22;4.38;;;16.10;93.00;;;;;;5114584;28;20149;-77
2021/08/17 09:04:52;;;;;;;7.45;4.50;;;16.10;92.60;;;;;;5114455;28;20039;-77
2021/08/17 09:07:35;;;;;;;10.43;4.75;;;16.00;92.90;;;;;;5114976;28;20241;-78
2021/08/17 09:10:06;;;;;;;7.97;3.85;;;16.00;93.10;;;;;;5114967;28;20048;-78
2021/08/17 09:12:36;;;;;;;8.10;4.55;;;16.10;93.50;;;;;;5114685;28;20131;-76
2021/08/17 09:15:13;;;;;;;7.80;4.57;;;16.20;92.60;;;;;;5113868;28;20126;-76
2021/08/17 09:17:41;;;;;;;7.70;4.40;;;16.20;92.40;;;;;;5114114;28;20048;-77
2021/08/17 09:20:15;;;;;;;6.65;3.95;;;16.30;92.30;;;;;;5113802;28;20052;-78
2021/08/17 09:22:42;;;;;;;8.52;4.57;;;16.40;92.60;;;;;;5114345;28;20127;-78
2021/08/17 09:25:11;;;;;;;8.48;4.18;;;16.50;91.50;;;;;;5114134;28;20390;-77
2021/08/17 09:27:39;;;;;;;7.60;4.40;;;16.50;91.20;;;;;;5114311;28;20046;-77
2021/08/17 09:30:11;;;;;;;7.80;4.32;;;16.50;90.80;;;;;;5114056;28;20070;-76
2021/08/17 09:32:52;;;;;;;7.03;3.90;;;16.50;90.90;;;;;;5114454;28;20428;-74
2021/08/17 09:35:22;;;;;;;7.35;4.28;;;16.50;90.90;;;;;;5112785;28;20050;-78
2021/08/17 09:38:07;;;;;;;8.35;4.55;;;16.50;90.80;;;;;;5127262;27;20133;-77
2021/08/17 09:40:37;;;;;;;8.85;4.70;;;16.60;90.80;;;;;;5132099;27;20092;-79
2021/08/17 09:43:16;;;;;;;8.70;4.63;;;16.60;90.70;;;;;;5113997;28;20043;-78
2021/08/17 09:45:43;;;;;;;7.72;4.68;;;16.70;90.70;;;;;;5113544;28;20135;-78
2021/08/17 09:48:13;;;;;;;8.27;4.97;;;16.80;90.50;;;;;;5112895;28;20130;-76
2021/08/17 09:50:42;;;;;;;7.68;4.60;;;16.90;90.90;;;;;;5119241;27;20100;-79
2021/08/17 09:53:13;;;;;;;7.47;4.32;;;17.00;90.70;;;;;;5132055;27;20047;-79
2021/08/17 09:55:45;;;;;;;8.70;4.82;;;17.10;90.30;;;;;;5111317;28;20126;-77
2021/08/17 09:58:22;;;;;;;9.55;5.20;;;17.20;89.40;;;;;;5112402;28;20134;-77
2021/08/17 10:00:50;;;;;;;8.30;4.60;;;17.20;88.10;;;;;;5114702;28;20143;-77
2021/08/17 10:03:17;;;;;;;9.82;4.97;;;17.20;89.40;;;;;;5113909;28;20146;-79
2021/08/17 10:05:45;;;;;;;7.78;4.65;;;17.20;88.50;;;;;;5112983;28;20138;-78
2021/08/17 10:08:16;;;;;;;8.00;4.28;;;17.10;89.10;;;;;;5113378;28;20052;-77
2021/08/17 10:10:47;;;;;;;9.68;4.63;;;17.10;90.20;;;;;;5113526;28;20043;-77
2021/08/17 10:13:17;;;;;;;7.90;4.50;;;17.20;89.60;;;;;;5113454;28;20074;-80
2021/08/17 10:15:46;;;;;;;8.65;4.95;;;17.20;90.10;;;;;;5112021;28;20040;-80
2021/08/17 10:18:17;;;;;;;9.35;4.85;;;17.20;89.30;;;;;;5113036;28;20142;-81
2021/08/17 10:20:46;;;;;;;7.88;4.53;;;17.20;89.60;;;;;;5113096;28;20061;-78
2021/08/17 10:23:17;;;;;;;8.50;4.82;;;17.20;88.00;;;;;;5113215;28;20126;-80
2021/08/17 10:25:48;;;;;;;7.35;4.18;;;17.10;87.50;;;;;;5113172;28;20378;-77
2021/08/17 10:28:34;;;;;;;8.52;4.70;;;17.10;88.20;;;;;;5113314;28;20139;-80
2021/08/17 10:31:27;;;;;;;8.40;4.80;;;17.20;88.30;;;;;;5112899;28;20051;-79
2021/08/17 10:34:07;;;;;;;7.95;4.75;;;17.10;87.00;;;;;;5112800;28;20047;-79
2021/08/17 10:36:36;;;;;;;7.45;4.43;;;17.10;87.00;;;;;;5113023;28;20044;-80
2021/08/17 10:39:06;;;;;;;9.05;4.60;;;17.10;87.50;;;;;;5112383;28;20053;-78
2021/08/17 10:41:38;;;;;;;8.20;4.97;;;17.10;86.70;;;;;;5126849;27;20131;-78
2021/08/17 10:44:21;;;;;;;8.02;4.50;;;17.10;86.60;;;;;;5118200;28;20079;-77
2021/08/17 10:47:07;;;;;;;8.95;4.60;;;17.20;87.20;;;;;;5119415;28;20099;-75
2021/08/17 10:49:52;;;;;;;8.60;4.35;;;17.30;86.80;;;;;;5115109;28;20473;-77
2021/08/17 10:52:33;;;;;;;7.93;4.72;;;17.40;87.20;;;;;;5116895;28;20489;-79
2021/08/17 10:55:40;;;;;;;8.15;4.55;;;17.40;85.80;;;;;;5136688;28;20130;-77
2021/08/17 10:58:11;;;;;;;8.75;4.63;;;17.40;85.00;;;;;;5122558;28;20083;-78
2021/08/17 11:00:59;;;;;;;7.93;4.80;;;17.50;86.30;;;;;;5113978;28;20158;-78
2021/08/17 11:03:49;;;;;;;7.70;4.50;;;17.60;84.20;;;;;;5116336;28;20071;-77
2021/08/17 11:06:36;;;;;;;8.77;5.03;;;17.70;83.50;;;;;;5093295;28;20047;-79
2021/08/17 11:09:05;;;;;;;9.15;4.70;;;17.80;84.10;;;;;;5102938;28;20047;-78
2021/08/17 11:11:32;;;;;;;7.80;4.35;;;17.90;82.80;;;;;;5113306;28;20614;-76
2021/08/17 11:14:07;;;;;;;7.22;4.47;;;17.90;83.10;;;;;;5113177;28;20067;-80
2021/08/17 11:16:34;;;;;;;8.20;4.15;;;18.00;79.50;;;;;;5112516;28;20048;-78
2021/08/17 11:19:04;;;;;;;7.85;4.60;;;18.00;79.60;;;;;;5112856;28;20058;-79
2021/08/17 11:21:33;;;;;;;7.47;4.03;;;18.00;76.80;;;;;;5112752;28;20086;-79
2021/08/17 11:24:10;;;;;;;6.65;3.67;;;18.00;77.90;;;;;;5112589;28;20052;-79
2021/08/17 11:26:38;;;;;;;7.80;3.85;;;18.10;77.30;;;;;;5116283;28;20085;-78
2021/08/17 11:29:07;;;;;;;7.22;3.88;;;18.10;76.60;;;;;;5118522;28;20556;-78
2021/08/17 11:31:46;;;;;;;6.90;3.58;;;18.10;75.30;;;;;;5116478;28;20044;-80
2021/08/17 11:34:19;;;;;;;6.75;3.80;;;18.20;74.40;;;;;;5116663;28;20446;-80
2021/08/17 11:37:05;;;;;;;6.97;3.90;;;18.30;74.80;;;;;;5116591;28;20468;-77
2021/08/17 11:39:38;;;;;;;6.97;3.83;;;18.40;72.60;;;;;;5116099;28;20083;-81
2021/08/17 11:42:17;;;;;;;6.38;3.90;;;18.40;71.00;;;;;;5113910;28;20043;-78
2021/08/17 11:44:48;;;;;;;7.85;4.20;;;18.40;72.40;;;;;;5101365;28;20419;-80
2021/08/17 11:47:18;;;;;;;7.32;4.05;;;18.40;74.20;;;;;;5112000;28;20801;-77
2021/08/17 11:49:47;;;;;;;6.10;3.85;;;18.40;74.20;;;;;;5112183;28;20047;-78
2021/08/17 11:52:18;;;;;;;8.13;4.10;;;18.40;72.00;;;;;;5112144;28;20051;-79
2021/08/17 11:54:55;;;;;;;7.53;4.40;;;18.40;72.90;;;;;;5111977;28;20050;-78
2021/08/17 11:57:30;;;;;;;7.30;4.20;;;18.40;71.80;;;;;;5112289;28;20138;-80
2021/08/17 12:00:09;;;;;;;8.05;4.22;;;18.40;72.60;;;;;;5112146;28;20491;-81
2021/08/17 12:02:37;;;;;;;6.80;4.32;;;18.40;72.50;;;;;;5091917;28;20054;-77
2021/08/17 12:05:07;;;;;;;7.20;4.22;;;18.50;73.20;;;;;;5091795;28;20130;-77
2021/08/17 12:07:35;;;;;;;7.03;3.80;;;18.60;72.30;;;;;;5091087;28;20052;-80
2021/08/17 12:10:13;;;;;;;7.30;3.80;;;18.70;71.90;;;;;;5093028;28;20048;-78
2021/08/17 12:13:08;;;;;;;6.97;3.80;;;18.80;72.50;;;;;;5094041;28;20477;-81
2021/08/17 12:15:43;;;;;;;7.88;4.28;;;18.90;73.90;;;;;;5065814;28;20054;-79
2021/08/17 12:18:13;;;;;;;7.47;4.25;;;19.00;72.10;;;;;;5111933;28;20051;-80
2021/08/17 12:20:52;;;;;;;7.45;4.20;;;19.20;71.80;;;;;;5111105;28;20509;-78
2021/08/17 12:23:24;;;;;;;7.57;4.18;;;19.30;71.30;;;;;;5110878;28;20504;-78
2021/08/17 12:25:53;;;;;;;7.90;4.53;;;19.50;70.70;;;;;;5111701;28;20130;-79
2021/08/17 12:28:33;;;;;;;7.10;4.13;;;19.60;71.00;;;;;;5111451;28;20132;-80
2021/08/17 12:31:14;;;;;;;6.97;4.30;;;19.60;70.50;;;;;;5111400;28;20049;-80
2021/08/17 12:33:46;;;;;;;6.88;4.30;;;19.60;70.90;;;;;;5090491;28;20048;-80
2021/08/17 12:36:14;;;;;;;7.13;3.80;;;19.70;69.20;;;;;;5091091;28;20044;-80
2021/08/17 12:38:43;;;;;;;7.25;4.18;;;19.70;69.90;;;;;;5090275;28;20044;-77
2021/08/17 12:41:11;;;;;;;7.38;4.13;;;19.70;69.10;;;;;;5091196;28;20052;-79
2021/08/17 12:43:42;;;;;;;7.53;4.15;;;19.80;69.10;;;;;;5090913;28;20697;-77
2021/08/17 12:46:17;;;;;;;7.80;4.40;;;19.80;69.20;;;;;;5102145;28;20044;-76
2021/08/17 12:48:45;;;;;;;5.68;3.40;;;20.00;69.00;;;;;;5111521;28;20066;-78
2021/08/17 12:51:21;;;;;;;7.25;4.10;;;20.20;69.70;;;;;;5111443;28;20054;-77
2021/08/17 12:53:48;;;;;;;8.52;4.53;;;20.50;70.00;;;;;;5112952;28;20039;-77
2021/08/17 12:56:15;;;;;;;7.75;4.43;;;20.70;68.80;;;;;;5112155;28;20495;-78
2021/08/17 12:58:46;;;;;;;7.63;4.45;;;20.90;66.70;;;;;;5110592;28;20047;-76